Create Custom Reports and Graphics: Custom Report

North/Central Map

Map

15 Minute Data

South County Map

Map

15 Minute Data

Northern Sonoma County Latest

13 Stations

15 Minute Data | America/Los_Angeles
as of 6/27/19 3:52 AM PDT
Station Date Time Temp (°F) RH (%) Dew Pt (°F) Wind Spd (mph) Wind Dir (°) Wind Gust (mph) Latest Rain (In) Daily Rain (In) Daily Min Temp (°F) Daily Max Temp (°F)
Cooley-Rockpile 6/27/19 0300 47.0   5.5 97   34 46.2   6.1 6.9 NW | 324 11.2   6.4 0.00 0.00 46.7   5.5 49.1   4.3
Cooley Lower Remote 6/27/19 0300 51.0   5.4 87   31 47.3   6.5 3.9 W | 279 6.4   0.3 0.00 0.00 50.8   5.5 54.0   3.8
Rancho Alexander-Cloverdale 6/27/19 0345 49.5   4.8 88   17 46.2   1.1 1.3 NNE | 24 2.4   1.1 0.00 0.00 48.8   4.6 51.6   8.5
Ranch 38 (Cloverdale-SE) 6/27/19 0345 51.4   6.0 83   25 46.5   3.7 2.4 N | 354 4.2   0.4 0.00 0.00 51.2   5.8 54.3   4.7
Hoffman - Geyserville 6/27/19 0345 48.9   10.9 89   34 45.6   2.1 1.3 WNW | 289 2.4   6.9 0.00 0.00 48.3   10.6 50.4   10.3
Geyserville Ranch 3 6/27/19 0345 53.0   8.3 82   31 47.7   4.9 2.4 W | 270 3.5   8.6 0.00 0.00 52.6   6.9 54.4   7.5
Ranch 40 (Geyserville-NE) 6/27/19 0345 50.9   6.4 87   27 47.0   3.4 4.3 NW | 316 8.7   0.3 0.00 0.00 50.6   6.4 54.2   5.2
Geyserville - S (Nervo Station) 6/27/19 0345 54.7   6.3 77   27 47.8   5.3 3.6 WNW | 296 7.8   1.7 0.00 0.00 54.4   6.3 56.3   6.6
River Oaks (Lytton) 6/27/19 0345 50.4   10.8 86   35 46.5   3.2 0.6 N | 356 1.7   7.6 0.00 0.00 49.2   11.5 51.7   10.9
Piccolo - Alexander Valley 6/27/19 0345 51.5   6.7 80   24 45.7   3.0 0.7 S | 182 2.6   0.4 0.00 0.00 49.0   8.6 54.5   7.6
Red Fan 6/27/19 0345 49.7   10.3 92   38 47.7   4.0 0.4 N | 11 2.1   6.6 0.00 0.00 49.4   10.5 51.0   10.6
Landslide 6/27/19 0345 45.1   9.6 97   18 44.3   4.1 0.0 NW | 320 0.9   0.8 0.00 0.00 44.8   9.4 49.3   8.0
Dry Creek Valley 6/27/19 0345 50.6   10.7 89   36 47.5   3.6 0.2 SSW | 199 1.7   8.4 0.00 0.00 50.2   10.8 54.9   9.3
Max     54.7 97 47.8 6.9 - 11.2 0.00 0.00 54.4 56.3
Avg     50.3 87 46.6 2.2 - 4.3 0.00 - - -
Min     45.1 77 44.3 0.0 - 0.9 0.00 0.00 44.8 49.1

Central Sonoma County Latest

22 Stations

15 Minute Data | America/Los_Angeles
as of 6/27/19 3:52 AM PDT
Station Date Time Temp (°F) RH (%) Dew Pt (°F) Wind Spd (mph) Wind Dir (°) Wind Gust (mph) Latest Rain (In) Daily Rain (In) Daily Min Temp (°F) Daily Max Temp (°F)
Healdsburg - S (Sodini) 6/27/19 0345 47.5   13.6 94   41 45.8   2.1 0.1 E | 82 2.1   4.7 0.00 0.00 47.0   13.5 51.0   13.3
Ranch 8 (Windsor-NW) 6/27/19 0345 52.7   6.1 86   19 48.8   0.9 3.0 ENE | 72 4.7   1.4 0.00 0.00 52.0   5.0 56.7   8.1
Foothill Ranch 16 6/27/19 0345 46.7   6.7 96   14 45.7   2.3 0.2 SE | 130 1.6   0.3 0.00 0.00 46.3   4.7 51.5   2.4
Airport Ranch 14 6/27/19 0345 48.6   6.5 94   19 47.0   0.2 0.8 ENE | 64 2.9   1.1 0.00 0.00 48.4   4.8 54.1   1.5
Silk Road 6/27/19 0345 47.4   3.6 97   2 46.5   3.1 0.1 ENE | 67 1.2   0.1 0.00 0.00 47.2   3.2 51.7   0.9
Oak Meadows Ranch 5 6/27/19 0345 46.6   5.2 96   9 45.7   2.6 0.2 NNE | 30 1.5   1.4 0.00 0.00 46.3   4.4 50.8   1.6
Laughlin Rd (Windsor-South) 6/27/19 0345 49.7   2.9 95   10 48.2   0.3 - - - 0.00 0.00 49.4   2.2 55.2   1.6
Barnes Rd (SE Fulton) 6/27/19 0345 48.3   7.5 95   25 47.0   0.8 1.2 NE | 41 2.0   1.2 0.00 0.00 47.7   4.5 53.0   3.1
Crinella Ranch 21 6/27/19 0345 48.3   4.4 93   10 46.3   1.1 1.0 E | 85 2.1   0.1 0.00 0.00 47.7   4.2 52.3   0.7
Denner Ranch Base 6/27/19 0345 50.2   0.2 93   2 48.3   0.6 1.0 NE | 51 2.4   0.9 0.00 0.00 49.7   0.0 53.2   0.9
Guerneville Road (Santa Rosa Plains) 6/27/19 0345 47.7   2.5 94   6 46.1   0.8 1.1 E | 94 1.9   1.1 0.00 0.00 47.6   1.9 53.5   2.6
Rich Ranch (Guerneville Rd) 6/27/19 0345 46.7   5.0 93   10 44.8   1.9 - - - - - 46.5   4.2 50.2   1.8
Occidental Rd (Sebastopol) 6/27/19 0345 48.8   0.5 100   11 48.7   2.7 1.0 E | 79 2.2   0.7 0.00 0.00 48.4   0.2 53.9   4.1
Garrison Ranch 12 6/27/19 0345 48.0   4.3 - - 0.5 W | 274 1.9   0.2 0.00 0.00 47.7   4.4 51.4   2.9
Laughlin Rd (Guerneville) 6/27/19 0345 45.3   4.4 92   1 43.1   4.0 0.1 N | 354 0.7   0.7 0.00 0.00 45.1   4.0 48.5   2.3
Korbel Winery 6/27/19 0345 49.5   3.2 96   11 48.4   0.1 0.0 N | 0 0.0   0.0 0.00 0.00 49.0   3.5 52.4   2.5
Shone Farms (Forestville) 6/27/19 0345 52.6   6.1 91   28 50.0   4.1 3.0 WSW | 247 5.7   1.0 0.00 0.00 51.9   5.8 55.3   6.2
Ranch 30 (Forestville-NE) 6/27/19 0345 50.1   4.2 95   18 48.7   1.5 0.8 S | 184 3.4   0.7 0.00 0.00 49.6   3.7 52.4   3.4
Dutton Ranch (Graton-West) 6/27/19 0345 48.9   6.0 100   18 48.9   0.4 0.3 N | 2 1.8   0.4 0.00 0.00 48.1   2.7 51.2   4.5
Mill Station Rd (Graton-South) 6/27/19 0345 49.0   5.1 98   20 48.3   0.9 1.1 SSW | 204 3.7   0.8 0.00 0.00 48.7   0.7 51.9   2.5
Burnside Road (Sebastopol Hills) 6/27/19 0345 50.9   5.5 93   23 49.1   2.3 2.1 W | 263 3.7   3.7 0.00 0.00 50.6   5.7 51.6   6.8
Hirsch Vineyards 6/27/19 0345 48.5   4.9 97   30 47.7   4.8 3.1 NNW | 334 6.9   1.3 0.00 0.00 48.1   5.3 49.8   6.2
Max     52.7 100 50.0 3.1 - 6.9 0.00 0.00 52.0 56.7
Avg     48.7 95 47.3 1.0 - 2.6 0.00 - - -
Min     45.3 86 43.1 0.0 - 0.0 0.00 0.00 45.1 48.5

Southern Sonoma County Latest

14 Stations

15 Minute Data | America/Los_Angeles
as of 6/27/19 3:52 AM PDT
Station Date Time Temp (°F) RH (%) Dew Pt (°F) Wind Spd (mph) Wind Dir (°) Wind Gust (mph) Latest Rain (In) Daily Rain (In) Daily Min Temp (°F) Daily Max Temp (°F)
Lower Bennett Valley 6/27/19 0345 41.7   5.8 98   5 41.1   4.4 0.0 SSW | 211 0.8   1.5 0.00 0.00 41.3   5.6 47.5   3.8
Kunde - Kenwood 6/27/19 0300 41.6   4.5 92   2 39.5   4.0 0.0 N | 0 0.0   0.0 0.00 0.00 41.3   4.4 45.6   2.9
Sonoma Valley (Bedrock) 6/27/19 0345 53.4   6.8 82   32 48.0   6.8 3.0 N | 5 7.4   2.3 0.00 0.00 50.8   8.7 54.9   7.6
Arnold (Sonoma) 6/27/19 0345 51.2   1.6 92   8 48.9   3.9 1.7 WSW | 254 3.0   0.3 0.00 0.00 50.4   0.9 54.0   1.3
Schellville 6/27/19 0345 52.6   1.5 94   13 51.0   2.6 1.3 WSW | 247 5.8   1.3 0.00 0.00 52.4   1.6 54.5   1.6
Napoli (Sonoma-SE) 6/27/19 0345 48.4   2.5 94   8 46.7   0.1 0.4 E | 88 1.7   0.3 0.00 0.00 47.3   2.4 52.6   0.5
Diamond R71 (Carneros) 6/27/19 0345 50.9   1.7 98   16 50.4   3.2 3.4 W | 272 6.7   0.7 0.00 0.00 50.7   1.6 52.8   1.7
Huichica Upper 6/27/19 0345 51.3   1.8 96   17 50.2   3.4 4.3 SW | 228 6.8   4.1 - - 51.0   1.8 53.1   1.6
Huichica-Lower 6/27/19 0345 49.8   1.3 95   9 48.5   1.4 0.2 S | 179 1.9   0.7 0.00 0.00 49.5   1.9 53.3   2.0
Stony Point (West Rohnert Park) 6/27/19 0345 44.2   6.0 98   5 43.6   4.6 0.4 SSE | 153 1.4   0.5 0.00 0.00 43.7   3.1 48.9   1.5
Asellus (Penngrove) 6/27/19 0345 43.6   5.9 100   7 43.6   4.1 0.2 NNW | 329 1.0   2.9 0.00 0.00 43.3   3.3 48.7   1.0
Rodger's Creek 6/27/19 0345 50.4   0.2 100   12 50.4   3.1 4.1 W | 267 7.4   1.4 0.00 0.00 49.9   0.6 52.2   0.1
Frates R10 (East Petaluma) 6/27/19 0345 54.0   1.5 93   7 52.1   3.5 2.9 NNW | 332 5.9   0.9 0.00 0.00 53.9   2.3 56.0   3.4
Sleepy Hollow-Lakeville 6/27/19 0345 52.4   1.5 93   14 50.6   2.8 2.6 NW | 320 5.6   1.0 0.00 0.00 52.0   2.2 55.3   0.7
Max     54.0 100 52.1 4.3 - 7.4 0.00 0.00 53.9 56.0
Avg     49.0 95 47.5 1.7 - 4.0 0.00 - - -
Min     41.6 82 39.5 0.0 - 0.0 0.00 0.00 41.3 45.6